sensor_id;sensor_type;location;lat;lon;timestamp;pressure;altitude;pressure_sealevel;temperature;humidity
14885;BME280;7534;50.762;7.000;2023-04-03T00:00:29;88784.84;;;-143.16;60.76
14885;BME280;7534;50.762;7.000;2023-04-03T00:02:56;88790.91;;;-143.16;60.19
14885;BME280;7534;50.762;7.000;2023-04-03T00:05:21;88782.81;;;-143.16;60.06
14885;BME280;7534;50.762;7.000;2023-04-03T00:07:47;88798.97;;;-143.16;60.49
14885;BME280;7534;50.762;7.000;2023-04-03T00:10:15;88756.56;;;-143.16;60.00
14885;BME280;7534;50.762;7.000;2023-04-03T00:12:41;88869.63;;;-143.16;59.88
14885;BME280;7534;50.762;7.000;2023-04-03T00:15:08;88734.38;;;-143.16;59.86
14885;BME280;7534;50.762;7.000;2023-04-03T00:17:34;88734.38;;;-143.16;60.01
14885;BME280;7534;50.762;7.000;2023-04-03T00:20:00;88796.94;;;-143.16;60.00
14885;BME280;7534;50.762;7.000;2023-04-03T00:22:26;88788.88;;;-143.16;60.00
14885;BME280;7534;50.762;7.000;2023-04-03T00:24:54;88756.56;;;-143.16;59.64
14885;BME280;7534;50.762;7.000;2023-04-03T00:27:20;88754.56;;;-143.16;59.36
14885;BME280;7534;50.762;7.000;2023-04-03T00:29:46;88726.28;;;-143.16;59.24
14885;BME280;7534;50.762;7.000;2023-04-03T00:32:11;88748.50;;;-143.16;59.15
14885;BME280;7534;50.762;7.000;2023-04-03T00:34:37;88756.56;;;-143.16;58.95
14885;BME280;7534;50.762;7.000;2023-04-03T00:37:03;88778.78;;;-143.16;58.28
14885;BME280;7534;50.762;7.000;2023-04-03T00:39:28;88784.84;;;-143.16;58.11
14885;BME280;7534;50.762;7.000;2023-04-03T00:41:54;88756.56;;;-143.16;57.83
14885;BME280;7534;50.762;7.000;2023-04-03T00:47:11;88722.25;;;-143.16;57.48
14885;BME280;7534;50.762;7.000;2023-04-03T00:49:39;88681.88;;;-143.16;57.49
14885;BME280;7534;50.762;7.000;2023-04-03T00:52:15;88780.81;;;-143.16;57.36
14885;BME280;7534;50.762;7.000;2023-04-03T00:54:43;88754.56;;;-143.16;57.53
14885;BME280;7534;50.762;7.000;2023-04-03T00:57:11;88714.19;;;-143.16;57.63
14885;BME280;7534;50.762;7.000;2023-04-03T00:59:46;88750.53;;;-143.16;57.70
14885;BME280;7534;50.762;7.000;2023-04-03T01:02:14;88742.44;;;-143.16;57.88
14885;BME280;7534;50.762;7.000;2023-04-03T01:04:42;88726.28;;;-143.16;57.42
14885;BME280;7534;50.762;7.000;2023-04-03T01:07:15;88776.75;;;-143.16;57.78
14885;BME280;7534;50.762;7.000;2023-04-03T01:09:43;88758.59;;;-143.16;57.46
14885;BME280;7534;50.762;7.000;2023-04-03T01:12:20;88750.53;;;-143.16;57.64
14885;BME280;7534;50.762;7.000;2023-04-03T01:14:49;88744.47;;;-143.16;57.82
14885;BME280;7534;50.762;7.000;2023-04-03T01:28:06;88805.03;;;-143.16;58.76
14885;BME280;7534;50.762;7.000;2023-04-03T01:31:26;88742.44;;;-143.16;58.68
14885;BME280;7534;50.762;7.000;2023-04-03T01:33:54;88770.72;;;-143.16;58.79
14885;BME280;7534;50.762;7.000;2023-04-03T01:36:27;88766.66;;;-143.16;58.93
14885;BME280;7534;50.762;7.000;2023-04-03T01:38:54;88841.38;;;-143.16;59.09
14885;BME280;7534;50.762;7.000;2023-04-03T01:41:22;88790.91;;;-143.16;59.08
14885;BME280;7534;50.762;7.000;2023-04-03T01:43:48;88788.88;;;-143.16;59.41
14885;BME280;7534;50.762;7.000;2023-04-03T01:46:16;88770.72;;;-143.16;59.41
14885;BME280;7534;50.762;7.000;2023-04-03T01:48:42;88798.97;;;-143.16;59.36
14885;BME280;7534;50.762;7.000;2023-04-03T01:51:08;88792.91;;;-143.16;59.82
14885;BME280;7534;50.762;7.000;2023-04-03T01:53:34;88774.75;;;-143.16;60.06
14885;BME280;7534;50.762;7.000;2023-04-03T01:56:00;88813.09;;;-143.16;60.00
14885;BME280;7534;50.762;7.000;2023-04-03T01:58:25;88899.94;;;-143.16;60.03
14885;BME280;7534;50.762;7.000;2023-04-03T02:00:52;88871.66;;;-143.16;60.19
14885;BME280;7534;50.762;7.000;2023-04-03T02:03:18;88835.31;;;-143.16;60.69
14885;BME280;7534;50.762;7.000;2023-04-03T02:05:44;88849.44;;;-143.16;60.90
14885;BME280;7534;50.762;7.000;2023-04-03T02:08:10;88853.50;;;-143.16;61.15
14885;BME280;7534;50.762;7.000;2023-04-03T02:10:36;88825.22;;;-143.16;61.47
14885;BME280;7534;50.762;7.000;2023-04-03T02:13:01;88859.53;;;-143.16;61.78
14885;BME280;7534;50.762;7.000;2023-04-03T02:15:27;88843.41;;;-143.16;62.20
14885;BME280;7534;50.762;7.000;2023-04-03T02:17:53;88839.34;;;-143.16;62.32
14885;BME280;7534;50.762;7.000;2023-04-03T02:20:19;88859.53;;;-143.16;62.52
14885;BME280;7534;50.762;7.000;2023-04-03T02:22:44;88875.69;;;-143.16;62.96
14885;BME280;7534;50.762;7.000;2023-04-03T02:25:10;88893.88;;;-143.16;62.87
14885;BME280;7534;50.762;7.000;2023-04-03T02:27:37;88875.69;;;-143.16;63.37
14885;BME280;7534;50.762;7.000;2023-04-03T02:30:04;88881.75;;;-143.16;63.37
14885;BME280;7534;50.762;7.000;2023-04-03T02:32:31;88922.13;;;-143.16;63.64
14885;BME280;7534;50.762;7.000;2023-04-03T02:34:56;88972.63;;;-143.16;63.87
14885;BME280;7534;50.762;7.000;2023-04-03T02:37:23;88885.78;;;-143.16;63.99
14885;BME280;7534;50.762;7.000;2023-04-03T02:39:49;88903.97;;;-143.16;63.69
14885;BME280;7534;50.762;7.000;2023-04-03T02:42:15;88932.22;;;-143.16;64.41
14885;BME280;7534;50.762;7.000;2023-04-03T02:44:40;88932.22;;;-143.16;64.53
14885;BME280;7534;50.762;7.000;2023-04-03T02:47:06;88899.94;;;-143.16;64.61
14885;BME280;7534;50.762;7.000;2023-04-03T02:49:32;88885.78;;;-143.16;64.84
14885;BME280;7534;50.762;7.000;2023-04-03T02:51:57;88940.31;;;-143.16;64.73
14885;BME280;7534;50.762;7.000;2023-04-03T02:54:23;88905.97;;;-143.16;64.86
14885;BME280;7534;50.762;7.000;2023-04-03T02:56:53;88934.25;;;-143.16;65.19
14885;BME280;7534;50.762;7.000;2023-04-03T02:59:18;88920.13;;;-143.16;65.51
14885;BME280;7534;50.762;7.000;2023-04-03T03:01:44;88922.13;;;-143.16;65.75
14885;BME280;7534;50.762;7.000;2023-04-03T03:04:09;88936.28;;;-143.16;66.24
14885;BME280;7534;50.762;7.000;2023-04-03T03:06:35;88932.22;;;-143.16;66.59
14885;BME280;7534;50.762;7.000;2023-04-03T03:09:01;88928.19;;;-143.16;66.65
14885;BME280;7534;50.762;7.000;2023-04-03T03:11:26;89071.56;;;-143.16;66.87
14885;BME280;7534;50.762;7.000;2023-04-03T03:13:52;88936.28;;;-143.16;66.68
14885;BME280;7534;50.762;7.000;2023-04-03T03:16:18;88934.25;;;-143.16;66.87
14885;BME280;7534;50.762;7.000;2023-04-03T03:18:44;88950.41;;;-143.16;66.94
14885;BME280;7534;50.762;7.000;2023-04-03T03:21:10;88972.63;;;-143.16;67.10
14885;BME280;7534;50.762;7.000;2023-04-03T03:23:36;88948.38;;;-143.16;67.53
14885;BME280;7534;50.762;7.000;2023-04-03T03:26:06;88976.66;;;-143.16;67.47
14885;BME280;7534;50.762;7.000;2023-04-03T03:28:33;88946.38;;;-143.16;67.74
14885;BME280;7534;50.762;7.000;2023-04-03T03:30:59;89013.00;;;-143.16;68.46
14885;BME280;7534;50.762;7.000;2023-04-03T03:33:26;88952.41;;;-143.16;68.45
14885;BME280;7534;50.762;7.000;2023-04-03T03:35:53;88976.66;;;-143.16;68.54
14885;BME280;7534;50.762;7.000;2023-04-03T03:38:20;88990.78;;;-143.16;68.75
14885;BME280;7534;50.762;7.000;2023-04-03T03:40:50;88976.66;;;-143.16;68.66
14885;BME280;7534;50.762;7.000;2023-04-03T03:43:17;89006.94;;;-143.16;68.79
14885;BME280;7534;50.762;7.000;2023-04-03T03:45:44;88994.81;;;-143.16;68.75
14885;BME280;7534;50.762;7.000;2023-04-03T03:48:11;89000.88;;;-143.16;69.16
14885;BME280;7534;50.762;7.000;2023-04-03T03:50:37;88964.53;;;-143.16;69.06
14885;BME280;7534;50.762;7.000;2023-04-03T03:53:02;88976.66;;;-143.16;68.87
14885;BME280;7534;50.762;7.000;2023-04-03T03:55:28;89000.88;;;-143.16;68.89
14885;BME280;7534;50.762;7.000;2023-04-03T03:57:54;88978.66;;;-143.16;69.21
14885;BME280;7534;50.762;7.000;2023-04-03T04:00:20;89010.97;;;-143.16;69.38
14885;BME280;7534;50.762;7.000;2023-04-03T04:02:45;88990.78;;;-143.16;69.61
14885;BME280;7534;50.762;7.000;2023-04-03T04:05:12;89023.09;;;-143.16;69.77
14885;BME280;7534;50.762;7.000;2023-04-03T04:07:37;89017.03;;;-143.16;70.22
14885;BME280;7534;50.762;7.000;2023-04-03T04:10:03;89031.16;;;-143.16;70.70
14885;BME280;7534;50.762;7.000;2023-04-03T04:12:30;89045.31;;;-143.16;70.86
14885;BME280;7534;50.762;7.000;2023-04-03T04:14:55;89055.41;;;-143.16;71.20
14885;BME280;7534;50.762;7.000;2023-04-03T04:17:21;89055.41;;;-143.16;71.16
14885;BME280;7534;50.762;7.000;2023-04-03T04:19:47;89045.31;;;-143.16;71.16
14885;BME280;7534;50.762;7.000;2023-04-03T04:22:12;89025.13;;;-143.16;70.99
14885;BME280;7534;50.762;7.000;2023-04-03T04:24:38;89047.31;;;-143.16;71.14
14885;BME280;7534;50.762;7.000;2023-04-03T04:27:04;89047.31;;;-143.16;71.37
14885;BME280;7534;50.762;7.000;2023-04-03T04:29:29;89089.72;;;-143.16;71.56
14885;BME280;7534;50.762;7.000;2023-04-03T04:32:00;89033.19;;;-143.16;71.43
14885;BME280;7534;50.762;7.000;2023-04-03T04:34:26;89063.47;;;-143.16;71.73
14885;BME280;7534;50.762;7.000;2023-04-03T04:36:51;89035.22;;;-143.16;72.17
14885;BME280;7534;50.762;7.000;2023-04-03T04:39:17;89091.75;;;-143.16;72.16
14885;BME280;7534;50.762;7.000;2023-04-03T04:41:43;89023.09;;;-143.16;72.51
14885;BME280;7534;50.762;7.000;2023-04-03T04:44:09;89077.59;;;-143.16;72.66
14885;BME280;7534;50.762;7.000;2023-04-03T04:46:39;89075.59;;;-143.16;73.66
14885;BME280;7534;50.762;7.000;2023-04-03T04:49:05;89083.66;;;-143.16;74.05
14885;BME280;7534;50.762;7.000;2023-04-03T04:51:31;89075.59;;;-143.16;74.14
14885;BME280;7534;50.762;7.000;2023-04-03T04:53:56;89069.53;;;-143.16;74.02
14885;BME280;7534;50.762;7.000;2023-04-03T04:56:22;89047.31;;;-143.16;74.21
14885;BME280;7534;50.762;7.000;2023-04-03T04:58:48;89107.91;;;-143.16;74.07
14885;BME280;7534;50.762;7.000;2023-04-03T05:01:13;89065.50;;;-143.16;74.03
14885;BME280;7534;50.762;7.000;2023-04-03T05:03:39;89132.13;;;-143.16;74.20
14885;BME280;7534;50.762;7.000;2023-04-03T05:06:05;89130.09;;;-143.16;74.08
14885;BME280;7534;50.762;7.000;2023-04-03T05:08:31;89059.44;;;-143.16;74.08
14885;BME280;7534;50.762;7.000;2023-04-03T05:10:57;89075.59;;;-143.16;74.36
14885;BME280;7534;50.762;7.000;2023-04-03T05:13:22;89065.50;;;-143.16;74.20
14885;BME280;7534;50.762;7.000;2023-04-03T05:15:48;89085.69;;;-143.16;74.19
14885;BME280;7534;50.762;7.000;2023-04-03T05:18:14;89051.38;;;-143.16;74.13
14885;BME280;7534;50.762;7.000;2023-04-03T05:20:40;89079.63;;;-143.16;74.30
14885;BME280;7534;50.762;7.000;2023-04-03T05:23:06;89071.56;;;-143.16;74.07
14885;BME280;7534;50.762;7.000;2023-04-03T05:25:31;89061.47;;;-143.16;74.22
14885;BME280;7534;50.762;7.000;2023-04-03T05:27:58;89061.47;;;-143.16;74.04
14885;BME280;7534;50.762;7.000;2023-04-03T05:30:23;89057.41;;;-143.16;74.07
14885;BME280;7534;50.762;7.000;2023-04-03T05:32:49;89069.53;;;-143.16;74.03
14885;BME280;7534;50.762;7.000;2023-04-03T05:35:15;89124.06;;;-143.16;73.95
14885;BME280;7534;50.762;7.000;2023-04-03T05:37:40;89073.56;;;-143.16;73.97
14885;BME280;7534;50.762;7.000;2023-04-03T05:40:07;88980.69;;;-143.16;74.00
14885;BME280;7534;50.762;7.000;2023-04-03T05:42:33;89033.19;;;-143.16;73.72
14885;BME280;7534;50.762;7.000;2023-04-03T05:44:59;89049.34;;;-143.16;73.63
14885;BME280;7534;50.762;7.000;2023-04-03T05:47:25;89057.41;;;-143.16;73.58
14885;BME280;7534;50.762;7.000;2023-04-03T05:49:51;89010.97;;;-143.16;73.85
14885;BME280;7534;50.762;7.000;2023-04-03T05:52:36;88992.81;;;-143.16;73.76
14885;BME280;7534;50.762;7.000;2023-04-03T05:55:02;89010.97;;;-143.16;74.53
14885;BME280;7534;50.762;7.000;2023-04-03T05:57:28;88968.56;;;-143.16;72.60
14885;BME280;7534;50.762;7.000;2023-04-03T05:59:54;88912.03;;;-143.16;76.41
14885;BME280;7534;50.762;7.000;2023-04-03T06:02:23;88899.94;;;-143.16;74.61
14885;BME280;7534;50.762;7.000;2023-04-03T06:04:49;88801.00;;;-143.16;73.94
14885;BME280;7534;50.762;7.000;2023-04-03T06:07:22;88764.66;;;-143.16;71.47
14885;BME280;7534;50.762;7.000;2023-04-03T06:09:50;88748.50;;;-143.16;69.91
14885;BME280;7534;50.762;7.000;2023-04-03T06:12:17;88798.97;;;-143.16;68.60
14885;BME280;7534;50.762;7.000;2023-04-03T06:14:43;88675.81;;;-143.16;67.36
14885;BME280;7534;50.762;7.000;2023-04-03T06:17:08;88639.47;;;-143.16;64.05
14885;BME280;7534;50.762;7.000;2023-04-03T06:19:35;88546.59;;;-143.16;60.28
14885;BME280;7534;50.762;7.000;2023-04-03T06:22:01;88459.78;;;-143.16;55.36
14885;BME280;7534;50.762;7.000;2023-04-03T06:24:30;88375.00;;;-143.16;49.65
14885;BME280;7534;50.762;7.000;2023-04-03T06:26:57;88334.63;;;-143.16;45.03
14885;BME280;7534;50.762;7.000;2023-04-03T06:29:23;88286.19;;;-143.16;42.21
14885;BME280;7534;50.762;7.000;2023-04-03T06:31:50;88165.06;;;-143.16;41.90
14885;BME280;7534;50.762;7.000;2023-04-03T06:34:16;88011.66;;;-143.16;39.80
14885;BME280;7534;50.762;7.000;2023-04-03T06:36:44;87696.75;;;-143.16;36.49
14885;BME280;7534;50.762;7.000;2023-04-03T06:39:20;87470.72;;;-143.16;33.60
14885;BME280;7534;50.762;7.000;2023-04-03T06:41:48;87222.47;;;-143.16;28.73
14885;BME280;7534;50.762;7.000;2023-04-03T06:44:13;87095.34;;;-143.16;28.44
14885;BME280;7534;50.762;7.000;2023-04-03T06:46:42;86885.47;;;-143.16;26.28
14885;BME280;7534;50.762;7.000;2023-04-03T06:49:08;87165.97;;;-143.16;27.78
14885;BME280;7534;50.762;7.000;2023-04-03T06:51:36;87135.69;;;-143.16;26.60
14885;BME280;7534;50.762;7.000;2023-04-03T06:54:04;87165.97;;;-143.16;26.80
14885;BME280;7534;50.762;7.000;2023-04-03T06:56:29;87030.75;;;-143.16;25.83
14885;BME280;7534;50.762;7.000;2023-04-03T06:58:56;87095.34;;;-143.16;25.98
14885;BME280;7534;50.762;7.000;2023-04-03T07:01:26;87309.25;;;-143.16;26.73
14885;BME280;7534;50.762;7.000;2023-04-03T07:03:53;87523.19;;;-143.16;28.39
14885;BME280;7534;50.762;7.000;2023-04-03T07:06:21;87599.88;;;-143.16;29.06
14885;BME280;7534;50.762;7.000;2023-04-03T07:08:47;87264.84;;;-143.16;27.17
14885;BME280;7534;50.762;7.000;2023-04-03T07:11:14;87107.44;;;-143.16;26.12
14885;BME280;7534;50.762;7.000;2023-04-03T07:13:40;87220.47;;;-143.16;26.27
14885;BME280;7534;50.762;7.000;2023-04-03T07:16:12;87476.75;;;-143.16;27.07
14885;BME280;7534;50.762;7.000;2023-04-03T07:18:38;87676.59;;;-143.16;28.94
14885;BME280;7534;50.762;7.000;2023-04-03T07:21:04;87731.06;;;-143.16;29.49
14885;BME280;7534;50.762;7.000;2023-04-03T07:23:30;87640.25;;;-143.16;29.03
14885;BME280;7534;50.762;7.000;2023-04-03T07:25:56;87908.69;;;-143.16;29.99
14885;BME280;7534;50.762;7.000;2023-04-03T07:28:22;87733.09;;;-143.16;29.76
14885;BME280;7534;50.762;7.000;2023-04-03T07:30:53;87791.63;;;-143.16;30.00
14885;BME280;7534;50.762;7.000;2023-04-03T07:33:22;87789.63;;;-143.16;30.23
14885;BME280;7534;50.762;7.000;2023-04-03T07:35:49;87767.41;;;-143.16;30.41
14885;BME280;7534;50.762;7.000;2023-04-03T07:38:15;87745.22;;;-143.16;30.19
14885;BME280;7534;50.762;7.000;2023-04-03T07:40:47;87751.25;;;-143.16;30.38
14885;BME280;7534;50.762;7.000;2023-04-03T07:43:14;87706.84;;;-143.16;29.65
14885;BME280;7534;50.762;7.000;2023-04-03T07:45:41;87809.78;;;-143.16;30.18
14885;BME280;7534;50.762;7.000;2023-04-03T07:48:14;87749.25;;;-143.16;29.92
14885;BME280;7534;50.762;7.000;2023-04-03T07:50:46;87829.97;;;-143.16;30.67
14885;BME280;7534;50.762;7.000;2023-04-03T07:53:13;87789.63;;;-143.16;30.82
14885;BME280;7534;50.762;7.000;2023-04-03T07:55:39;87809.78;;;-143.16;30.29
14885;BME280;7534;50.762;7.000;2023-04-03T07:58:17;87698.78;;;-143.16;29.66
14885;BME280;7534;50.762;7.000;2023-04-03T08:00:44;87682.63;;;-143.16;29.34
14885;BME280;7534;50.762;7.000;2023-04-03T08:03:12;87676.59;;;-143.16;29.09
14885;BME280;7534;50.762;7.000;2023-04-03T08:05:41;87733.09;;;-143.16;29.54
14885;BME280;7534;50.762;7.000;2023-04-03T08:08:08;87648.31;;;-143.16;28.92
14885;BME280;7534;50.762;7.000;2023-04-03T08:10:34;87797.69;;;-143.16;29.38
14885;BME280;7534;50.762;7.000;2023-04-03T08:13:01;87785.56;;;-143.16;30.24
14885;BME280;7534;50.762;7.000;2023-04-03T08:15:27;87741.16;;;-143.16;29.78
14885;BME280;7534;50.762;7.000;2023-04-03T08:17:55;87607.97;;;-143.16;28.77
14885;BME280;7534;50.762;7.000;2023-04-03T08:20:21;87680.63;;;-143.16;29.57
14885;BME280;7534;50.762;7.000;2023-04-03T08:22:46;87688.69;;;-143.16;29.36
14885;BME280;7534;50.762;7.000;2023-04-03T08:25:13;87579.69;;;-143.16;28.67
14885;BME280;7534;50.762;7.000;2023-04-03T08:27:38;87640.25;;;-143.16;28.62
14885;BME280;7534;50.762;7.000;2023-04-03T08:30:06;87583.75;;;-143.16;28.40
14885;BME280;7534;50.762;7.000;2023-04-03T08:32:34;87648.31;;;-143.16;28.64
14885;BME280;7534;50.762;7.000;2023-04-03T08:35:02;87757.31;;;-143.16;29.17
14885;BME280;7534;50.762;7.000;2023-04-03T08:37:28;87797.69;;;-143.16;29.35
14885;BME280;7534;50.762;7.000;2023-04-03T08:39:54;87876.41;;;-143.16;29.69
14885;BME280;7534;50.762;7.000;2023-04-03T08:48:36;87781.53;;;-143.16;30.16
14885;BME280;7534;50.762;7.000;2023-04-03T08:51:13;87821.91;;;-143.16;29.92
14885;BME280;7534;50.762;7.000;2023-04-03T08:53:56;87773.47;;;-143.16;29.37
14885;BME280;7534;50.762;7.000;2023-04-03T08:56:26;87747.22;;;-143.16;29.16
14885;BME280;7534;50.762;7.000;2023-04-03T08:59:10;87793.66;;;-143.16;29.81
14885;BME280;7534;50.762;7.000;2023-04-03T09:01:41;87842.09;;;-143.16;29.86
14885;BME280;7534;50.762;7.000;2023-04-03T09:04:14;87870.34;;;-143.16;29.29
14885;BME280;7534;50.762;7.000;2023-04-03T09:06:47;87882.47;;;-143.16;29.83
14885;BME280;7534;50.762;7.000;2023-04-03T09:09:35;87914.75;;;-143.16;30.03
14885;BME280;7534;50.762;7.000;2023-04-03T09:12:17;87959.16;;;-143.16;30.30
14885;BME280;7534;50.762;7.000;2023-04-03T09:15:12;87894.56;;;-143.16;30.18
14885;BME280;7534;50.762;7.000;2023-04-03T09:18:05;87880.44;;;-143.16;29.73
14885;BME280;7534;50.762;7.000;2023-04-03T09:20:53;87848.16;;;-143.16;29.28
14885;BME280;7534;50.762;7.000;2023-04-03T09:23:50;87880.44;;;-143.16;29.30
14885;BME280;7534;50.762;7.000;2023-04-03T09:26:28;87882.47;;;-143.16;29.24
14885;BME280;7534;50.762;7.000;2023-04-03T09:29:00;87910.72;;;-143.16;29.88
14885;BME280;7534;50.762;7.000;2023-04-03T09:31:36;87864.28;;;-143.16;29.48
14885;BME280;7534;50.762;7.000;2023-04-03T09:34:13;88017.69;;;-143.16;30.10
14885;BME280;7534;50.762;7.000;2023-04-03T09:36:45;87959.16;;;-143.16;29.96
14885;BME280;7534;50.762;7.000;2023-04-03T09:39:18;88029.81;;;-143.16;29.41
14885;BME280;7534;50.762;7.000;2023-04-03T09:42:05;87991.47;;;-143.16;30.64
14885;BME280;7534;50.762;7.000;2023-04-03T09:44:36;88001.56;;;-143.16;30.85
14885;BME280;7534;50.762;7.000;2023-04-03T09:52:42;87997.50;;;-143.16;29.70
14885;BME280;7534;50.762;7.000;2023-04-03T09:55:25;88078.25;;;-143.16;30.08
14885;BME280;7534;50.762;7.000;2023-04-03T09:58:04;87985.41;;;-143.16;29.22
14885;BME280;7534;50.762;7.000;2023-04-03T10:00:40;88114.59;;;-143.16;29.71
14885;BME280;7534;50.762;7.000;2023-04-03T10:03:28;88106.53;;;-143.16;29.96
14885;BME280;7534;50.762;7.000;2023-04-03T10:05:54;88039.91;;;-143.16;29.95
14885;BME280;7534;50.762;7.000;2023-04-03T10:08:34;87987.44;;;-143.16;29.14
14885;BME280;7534;50.762;7.000;2023-04-03T10:11:17;88092.38;;;-143.16;29.09
14885;BME280;7534;50.762;7.000;2023-04-03T10:13:54;88025.78;;;-143.16;29.24
14885;BME280;7534;50.762;7.000;2023-04-03T10:16:48;88078.25;;;-143.16;28.89
14885;BME280;7534;50.762;7.000;2023-04-03T10:19:40;88076.25;;;-143.16;29.69
14885;BME280;7534;50.762;7.000;2023-04-03T10:22:32;88102.47;;;-143.16;29.67
14885;BME280;7534;50.762;7.000;2023-04-03T10:25:20;88092.38;;;-143.16;30.07
14885;BME280;7534;50.762;7.000;2023-04-03T10:28:05;88120.66;;;-143.16;30.50
14885;BME280;7534;50.762;7.000;2023-04-03T10:30:56;88112.56;;;-143.16;29.83
14885;BME280;7534;50.762;7.000;2023-04-03T10:33:51;88257.91;;;-143.16;30.57
14885;BME280;7534;50.762;7.000;2023-04-03T10:36:43;88201.41;;;-143.16;30.38
14885;BME280;7534;50.762;7.000;2023-04-03T10:42:10;88193.31;;;-143.16;30.79
14885;BME280;7534;50.762;7.000;2023-04-03T10:45:07;88282.16;;;-143.16;30.94
14885;BME280;7534;50.762;7.000;2023-04-03T10:48:11;88268.00;;;-143.16;31.53
14885;BME280;7534;50.762;7.000;2023-04-03T10:51:06;88292.22;;;-143.16;31.19
14885;BME280;7534;50.762;7.000;2023-04-03T10:53:52;88215.53;;;-143.16;30.90
14885;BME280;7534;50.762;7.000;2023-04-03T10:56:37;88213.50;;;-143.16;31.11
14885;BME280;7534;50.762;7.000;2023-04-03T10:59:44;88253.88;;;-143.16;30.64
14885;BME280;7534;50.762;7.000;2023-04-03T11:02:42;88231.69;;;-143.16;31.10
14885;BME280;7534;50.762;7.000;2023-04-03T11:05:37;88300.31;;;-143.16;30.59
14885;BME280;7534;50.762;7.000;2023-04-03T11:08:26;88235.72;;;-143.16;30.40
14885;BME280;7534;50.762;7.000;2023-04-03T11:11:00;88213.50;;;-143.16;30.57
14885;BME280;7534;50.762;7.000;2023-04-03T11:13:43;88185.25;;;-143.16;30.09
14885;BME280;7534;50.762;7.000;2023-04-03T11:16:27;88195.34;;;-143.16;29.32
14885;BME280;7534;50.762;7.000;2023-04-03T11:19:20;88251.88;;;-143.16;29.21
14885;BME280;7534;50.762;7.000;2023-04-03T11:21:57;88259.94;;;-143.16;29.82
14885;BME280;7534;50.762;7.000;2023-04-03T11:24:29;88181.22;;;-143.16;29.17
14885;BME280;7534;50.762;7.000;2023-04-03T11:27:00;88211.50;;;-143.16;29.68
14885;BME280;7534;50.762;7.000;2023-04-03T11:29:35;88193.31;;;-143.16;28.65
14885;BME280;7534;50.762;7.000;2023-04-03T11:32:37;88163.03;;;-143.16;28.38
14885;BME280;7534;50.762;7.000;2023-04-03T11:35:08;88211.50;;;-143.16;28.16
14885;BME280;7534;50.762;7.000;2023-04-03T11:37:40;88165.06;;;-143.16;28.50
14885;BME280;7534;50.762;7.000;2023-04-03T11:40:26;88187.25;;;-143.16;29.56
14885;BME280;7534;50.762;7.000;2023-04-03T11:45:31;88173.13;;;-143.16;28.34
14885;BME280;7534;50.762;7.000;2023-04-03T11:56:59;88144.88;;;-143.16;28.14
14885;BME280;7534;50.762;7.000;2023-04-03T11:59:24;88213.50;;;-143.16;27.45
14885;BME280;7534;50.762;7.000;2023-04-03T12:01:57;88102.47;;;-143.16;27.19
14885;BME280;7534;50.762;7.000;2023-04-03T12:04:27;88136.78;;;-143.16;27.49
14885;BME280;7534;50.762;7.000;2023-04-03T12:07:16;88126.72;;;-143.16;28.38
14885;BME280;7534;50.762;7.000;2023-04-03T12:12:31;88088.34;;;-143.16;28.95
14885;BME280;7534;50.762;7.000;2023-04-03T12:21:13;88120.66;;;-143.16;28.13
14885;BME280;7534;50.762;7.000;2023-04-03T12:35:36;88132.75;;;-143.16;27.29
14885;BME280;7534;50.762;7.000;2023-04-03T12:38:41;88021.75;;;-143.16;27.67
14885;BME280;7534;50.762;7.000;2023-04-03T12:41:30;88094.41;;;-143.16;27.38
14885;BME280;7534;50.762;7.000;2023-04-03T12:44:32;88062.13;;;-143.16;27.22
14885;BME280;7534;50.762;7.000;2023-04-03T12:47:22;88047.97;;;-143.16;27.75
14885;BME280;7534;50.762;7.000;2023-04-03T12:49:50;88039.91;;;-143.16;27.12
14885;BME280;7534;50.762;7.000;2023-04-03T12:52:33;88096.44;;;-143.16;27.11
14885;BME280;7534;50.762;7.000;2023-04-03T12:55:02;88060.09;;;-143.16;26.69
14885;BME280;7534;50.762;7.000;2023-04-03T12:57:30;88120.66;;;-143.16;27.06
14885;BME280;7534;50.762;7.000;2023-04-03T12:59:59;88098.44;;;-143.16;27.42
14885;BME280;7534;50.762;7.000;2023-04-03T13:02:32;88072.19;;;-143.16;27.64
14885;BME280;7534;50.762;7.000;2023-04-03T13:05:08;88031.84;;;-143.16;27.22
14885;BME280;7534;50.762;7.000;2023-04-03T13:07:37;87989.44;;;-143.16;26.92
14885;BME280;7534;50.762;7.000;2023-04-03T13:12:55;87955.13;;;-143.16;27.28
14885;BME280;7534;50.762;7.000;2023-04-03T13:15:26;87957.16;;;-143.16;27.01
14885;BME280;7534;50.762;7.000;2023-04-03T13:17:54;87926.88;;;-143.16;26.41
14885;BME280;7534;50.762;7.000;2023-04-03T13:20:34;87999.53;;;-143.16;27.14
14885;BME280;7534;50.762;7.000;2023-04-03T13:23:08;88009.63;;;-143.16;25.77
14885;BME280;7534;50.762;7.000;2023-04-03T13:25:42;87997.50;;;-143.16;26.48
14885;BME280;7534;50.762;7.000;2023-04-03T13:28:17;87975.31;;;-143.16;27.07
14885;BME280;7534;50.762;7.000;2023-04-03T13:36:35;88039.91;;;-143.16;26.59
14885;BME280;7534;50.762;7.000;2023-04-03T13:39:28;87999.53;;;-143.16;25.73
14885;BME280;7534;50.762;7.000;2023-04-03T13:42:02;88013.66;;;-143.16;26.01
14885;BME280;7534;50.762;7.000;2023-04-03T13:44:40;88007.59;;;-143.16;26.37
14885;BME280;7534;50.762;7.000;2023-04-03T13:47:21;87971.28;;;-143.16;26.13
14885;BME280;7534;50.762;7.000;2023-04-03T13:50:25;87959.16;;;-143.16;26.21
14885;BME280;7534;50.762;7.000;2023-04-03T13:53:12;87957.16;;;-143.16;25.92
14885;BME280;7534;50.762;7.000;2023-04-03T13:55:55;88019.72;;;-143.16;25.97
14885;BME280;7534;50.762;7.000;2023-04-03T13:58:33;87959.16;;;-143.16;26.58
14885;BME280;7534;50.762;7.000;2023-04-03T14:01:18;87985.41;;;-143.16;25.86
14885;BME280;7534;50.762;7.000;2023-04-03T14:04:00;88007.59;;;-143.16;26.35
14885;BME280;7534;50.762;7.000;2023-04-03T14:06:27;87985.41;;;-143.16;26.92
14885;BME280;7534;50.762;7.000;2023-04-03T14:08:53;88003.56;;;-143.16;26.20
14885;BME280;7534;50.762;7.000;2023-04-03T14:11:30;88019.72;;;-143.16;26.56
14885;BME280;7534;50.762;7.000;2023-04-03T14:14:02;88033.84;;;-143.16;25.96
14885;BME280;7534;50.762;7.000;2023-04-03T14:16:37;87989.44;;;-143.16;26.82
14885;BME280;7534;50.762;7.000;2023-04-03T14:19:03;88011.66;;;-143.16;27.05
14885;BME280;7534;50.762;7.000;2023-04-03T14:21:29;88011.66;;;-143.16;27.47